Time;durP1;ratioP1;P1;durP2;ratioP2;P2;SDS_P1;SDS_P2;PMS_P1;PMS_P2;Temp;Humidity;BMP_temperature;BMP_pressure;BME280_temperature;BME280_humidity;BME280_pressure;Samples;Min_cycle;Max_cycle;Signal;HPM_P1;HPM_P2
2021/07/07 00:02:25;;;;;;;4.90;3.47;;;14.60;99.90;;;;;;6278092;28;20466;-84
2021/07/07 00:05:26;;;;;;;3.25;2.63;;;14.40;99.90;;;;;;6278126;28;20032;-82
2021/07/07 00:08:27;;;;;;;4.70;2.50;;;14.50;99.90;;;;;;6277910;28;20028;-82
2021/07/07 00:11:28;;;;;;;7.78;2.50;;;;;;;;;;6294491;28;20040;-82
2021/07/07 00:14:29;;;;;;;4.57;2.55;;;;;;;;;;6294609;28;20036;-84
2021/07/07 00:17:29;;;;;;;3.08;2.65;;;;;;;;;;6295183;28;20039;-83
2021/07/07 00:20:38;;;;;;;5.63;3.10;;;14.90;99.90;;;;;;6294595;28;20056;-82
2021/07/07 00:23:38;;;;;;;3.88;2.90;;;14.80;99.90;;;;;;6278882;28;20032;-83
2021/07/07 00:26:39;;;;;;;3.78;2.80;;;14.70;99.90;;;;;;6277580;28;20489;-82
2021/07/07 00:29:42;;;;;;;3.15;2.85;;;;;;;;;;6294286;28;20398;-82
2021/07/07 00:32:42;;;;;;;4.25;2.70;;;14.70;99.90;;;;;;6294404;28;20027;-82
2021/07/07 00:35:43;;;;;;;5.43;2.95;;;14.90;99.90;;;;;;6260908;28;20386;-85
2021/07/07 00:38:44;;;;;;;4.97;2.65;;;14.70;99.90;;;;;;6276944;28;20084;-83
2021/07/07 00:41:44;;;;;;;4.00;2.95;;;14.60;99.90;;;;;;6257271;28;20033;-85
2021/07/07 00:44:45;;;;;;;2.70;2.47;;;14.80;99.90;;;;;;6276934;28;20032;-82
2021/07/07 00:47:46;;;;;;;4.25;2.38;;;14.80;99.90;;;;;;6276391;28;20131;-82
2021/07/07 00:50:49;;;;;;;4.07;2.45;;;14.80;99.90;;;;;;6252808;28;20037;-82
2021/07/07 00:53:49;;;;;;;7.28;3.10;;;14.90;99.90;;;;;;6269466;28;20029;-83
2021/07/07 00:56:50;;;;;;;4.53;2.60;;;14.80;99.90;;;;;;6243924;28;20029;-82
2021/07/07 00:59:53;;;;;;;4.47;2.50;;;14.90;99.90;;;;;;6259585;28;20058;-83
2021/07/07 01:02:56;;;;;;;6.35;2.88;;;14.80;99.90;;;;;;6275836;28;20036;-81
2021/07/07 01:05:56;;;;;;;3.63;2.50;;;14.80;99.90;;;;;;6252266;28;20051;-81
2021/07/07 01:08:57;;;;;;;5.90;2.85;;;14.90;99.90;;;;;;6243049;28;20025;-82
2021/07/07 01:11:57;;;;;;;4.78;2.58;;;14.80;99.90;;;;;;6259104;28;20093;-82
2021/07/07 01:15:01;;;;;;;3.00;2.70;;;14.70;99.90;;;;;;6242585;28;20478;-84
2021/07/07 01:18:03;;;;;;;3.00;2.70;;;15.00;99.90;;;;;;6259742;28;20028;-82
2021/07/07 01:21:04;;;;;;;3.93;3.13;;;14.90;99.90;;;;;;6262011;28;20064;-81
2021/07/07 01:24:05;;;;;;;4.43;2.90;;;14.90;99.90;;;;;;6251985;28;20275;-82
2021/07/07 01:27:05;;;;;;;4.18;2.80;;;14.80;99.90;;;;;;6235324;28;20115;-83
2021/07/07 01:30:07;;;;;;;5.57;2.85;;;14.90;99.90;;;;;;6268306;28;20047;-81
2021/07/07 01:33:07;;;;;;;3.83;2.70;;;14.80;99.90;;;;;;6242909;28;20039;-83
2021/07/07 01:36:08;;;;;;;5.40;3.08;;;14.80;99.90;;;;;;6269677;28;20032;-82
2021/07/07 01:39:09;;;;;;;3.08;2.72;;;14.90;99.90;;;;;;6259473;28;20109;-82
2021/07/07 01:42:09;;;;;;;7.70;3.08;;;14.90;99.90;;;;;;6242325;28;20021;-82
2021/07/07 01:45:13;;;;;;;3.40;3.00;;;14.90;99.90;;;;;;6242605;28;21143;-82
2021/07/07 01:48:13;;;;;;;2.90;2.60;;;14.90;99.90;;;;;;6242488;28;20036;-83
2021/07/07 01:51:14;;;;;;;3.15;2.83;;;15.00;99.90;;;;;;6242783;28;20049;-81
2021/07/07 01:54:14;;;;;;;3.67;3.10;;;15.10;99.90;;;;;;6259102;28;20115;-82
2021/07/07 01:57:15;;;;;;;3.28;2.97;;;15.10;99.90;;;;;;6258374;28;20085;-82
2021/07/07 02:00:20;;;;;;;3.75;2.95;;;15.10;99.90;;;;;;6242638;28;20024;-81
2021/07/07 02:03:20;;;;;;;4.90;3.10;;;15.10;99.90;;;;;;6275563;28;20024;-82
2021/07/07 02:06:21;;;;;;;3.75;2.75;;;15.10;99.90;;;;;;6258928;28;20028;-84
2021/07/07 02:09:21;;;;;;;4.60;2.95;;;15.10;99.90;;;;;;6258747;28;20028;-84
2021/07/07 02:12:22;;;;;;;3.10;2.80;;;15.00;99.90;;;;;;6258977;28;20150;-82
2021/07/07 02:15:24;;;;;;;3.05;2.75;;;15.10;99.90;;;;;;6241970;28;20035;-82
2021/07/07 02:18:25;;;;;;;4.90;3.25;;;15.10;99.90;;;;;;6258809;28;20033;-83
2021/07/07 02:21:25;;;;;;;4.05;3.22;;;15.10;99.90;;;;;;6275038;28;20040;-84
2021/07/07 02:24:26;;;;;;;3.10;2.80;;;15.10;99.90;;;;;;6258896;28;20054;-81
2021/07/07 02:27:26;;;;;;;3.40;3.00;;;15.10;99.90;;;;;;6258827;28;20352;-83
2021/07/07 02:30:30;;;;;;;3.25;2.75;;;15.20;99.90;;;;;;6241681;28;20105;-87
2021/07/07 02:33:30;;;;;;;4.60;2.35;;;15.30;99.90;;;;;;6274965;28;20389;-84
2021/07/07 02:36:31;;;;;;;5.40;2.80;;;15.30;99.90;;;;;;6258262;28;20025;-82
2021/07/07 02:39:31;;;;;;;5.43;3.00;;;15.20;99.90;;;;;;6250909;28;20531;-80
2021/07/07 02:42:33;;;;;;;4.40;2.80;;;15.20;99.90;;;;;;6266961;28;20094;-83
2021/07/07 02:45:34;;;;;;;5.03;3.35;;;15.20;99.90;;;;;;6257839;28;20025;-84
2021/07/07 02:48:34;;;;;;;3.22;2.92;;;15.40;99.90;;;;;;6241781;28;20072;-81
2021/07/07 02:51:35;;;;;;;3.13;2.83;;;15.20;99.90;;;;;;6257947;28;20041;-82
2021/07/07 02:54:36;;;;;;;5.22;3.15;;;15.20;99.90;;;;;;6234098;28;20038;-81
2021/07/07 03:00:55;;;;;;;4.55;3.17;;;15.10;99.90;;;;;;6267126;28;20033;-83
2021/07/07 03:03:56;;;;;;;5.30;2.90;;;15.00;99.90;;;;;;6250345;28;20395;-81
2021/07/07 03:06:56;;;;;;;4.13;3.05;;;15.10;99.90;;;;;;6250690;28;20033;-81
2021/07/07 03:09:57;;;;;;;3.47;3.17;;;15.10;99.90;;;;;;6273426;28;20042;-82
2021/07/07 03:12:57;;;;;;;4.45;3.30;;;15.10;99.90;;;;;;6273411;28;20036;-80
2021/07/07 03:15:58;;;;;;;3.75;3.10;;;15.10;99.90;;;;;;6254942;28;20037;-83
2021/07/07 03:18:59;;;;;;;5.03;3.17;;;15.10;99.90;;;;;;6294860;28;20036;-82
2021/07/07 03:21:59;;;;;;;3.75;2.75;;;15.20;99.90;;;;;;6292987;28;20028;-82
2021/07/07 03:25:00;;;;;;;3.40;3.10;;;15.20;99.90;;;;;;6295326;28;20103;-82
2021/07/07 03:28:00;;;;;;;3.40;3.10;;;15.20;99.90;;;;;;6278913;28;20379;-81
2021/07/07 03:31:01;;;;;;;8.48;3.63;;;15.50;99.90;;;;;;6278293;28;20044;-81
2021/07/07 03:34:02;;;;;;;7.03;4.32;;;15.80;99.90;;;;;;6271516;28;20103;-81
2021/07/07 03:37:02;;;;;;;6.47;3.03;;;15.30;99.90;;;;;;6238539;28;20051;-81
2021/07/07 03:40:04;;;;;;;5.35;3.00;;;15.10;99.90;;;;;;6257415;28;20078;-81
2021/07/07 03:43:04;;;;;;;6.90;3.60;;;15.10;99.90;;;;;;6278482;28;20065;-85
2021/07/07 03:46:05;;;;;;;6.32;3.20;;;14.80;99.90;;;;;;6278494;28;20255;-81
2021/07/07 03:49:05;;;;;;;5.18;2.92;;;15.10;99.90;;;;;;6278414;28;20029;-82
2021/07/07 03:52:06;;;;;;;6.43;3.28;;;15.10;99.90;;;;;;6274768;28;20482;-82
2021/07/07 03:55:08;;;;;;;5.65;3.60;;;15.00;99.90;;;;;;6261403;28;20032;-81
2021/07/07 03:58:09;;;;;;;5.68;3.10;;;;;;;;;;6278310;28;20119;-81
2021/07/07 04:01:11;;;;;;;7.45;3.58;;;;;;;;;;6263565;28;20429;-81
2021/07/07 04:04:12;;;;;;;4.15;2.70;;;;;;;;;;6264879;28;20460;-85
2021/07/07 04:07:13;;;;;;;4.43;3.28;;;;;;;;;;6277522;28;20027;-81
2021/07/07 04:10:14;;;;;;;5.45;3.42;;;;;;;;;;6277193;28;20174;-82
2021/07/07 04:13:14;;;;;;;6.32;3.67;;;15.10;99.90;;;;;;6277419;28;20424;-83
2021/07/07 04:16:15;;;;;;;3.60;3.30;;;;;;;;;;6257036;28;20032;-84
2021/07/07 04:19:16;;;;;;;4.22;3.78;;;;;;;;;;6277208;28;20028;-82
2021/07/07 04:22:17;;;;;;;3.75;3.42;;;14.90;99.90;;;;;;6276366;28;20064;-83
2021/07/07 04:25:18;;;;;;;6.60;4.13;;;15.20;99.90;;;;;;6260500;28;20089;-82
2021/07/07 04:28:18;;;;;;;6.35;3.75;;;15.20;99.90;;;;;;6275401;28;20032;-82
2021/07/07 04:31:19;;;;;;;4.47;3.42;;;15.20;99.90;;;;;;6254355;28;20048;-81
2021/07/07 04:34:20;;;;;;;6.50;3.70;;;15.30;99.90;;;;;;6253764;28;20025;-81
2021/07/07 04:37:20;;;;;;;4.70;3.67;;;15.50;99.90;;;;;;6236422;28;20036;-82
2021/07/07 04:40:22;;;;;;;6.53;3.85;;;15.30;99.90;;;;;;6272965;28;20513;-86
2021/07/07 04:43:22;;;;;;;7.23;4.03;;;15.20;99.90;;;;;;6263897;28;20024;-83
2021/07/07 04:46:23;;;;;;;4.20;3.60;;;15.00;99.90;;;;;;6291349;28;20057;-82
2021/07/07 04:49:23;;;;;;;4.93;3.33;;;15.30;99.90;;;;;;6294234;28;20471;-83
2021/07/07 04:52:24;;;;;;;4.95;3.60;;;15.40;99.90;;;;;;6256939;28;20040;-84
2021/07/07 04:55:25;;;;;;;6.57;3.83;;;15.40;99.90;;;;;;6269520;28;20063;-82
2021/07/07 04:58:25;;;;;;;6.97;3.60;;;15.40;99.90;;;;;;6252810;28;20108;-82
2021/07/07 05:01:26;;;;;;;4.65;3.35;;;;;;;;;;6276361;28;20025;-82
2021/07/07 05:04:27;;;;;;;6.63;3.50;;;15.40;99.90;;;;;;6278361;28;20439;-83
2021/07/07 05:07:28;;;;;;;3.67;3.30;;;15.50;99.90;;;;;;6257354;28;20037;-83
2021/07/07 05:10:30;;;;;;;5.85;3.40;;;15.60;99.90;;;;;;6273814;28;20049;-82
2021/07/07 05:13:32;;;;;;;4.18;3.28;;;15.60;99.90;;;;;;6271260;28;20029;-83
2021/07/07 05:16:32;;;;;;;3.47;3.03;;;15.60;99.90;;;;;;6240358;28;20360;-84
2021/07/07 05:19:33;;;;;;;5.15;3.58;;;15.60;99.90;;;;;;6252218;28;20067;-85
2021/07/07 05:22:34;;;;;;;6.03;3.50;;;15.50;99.90;;;;;;6255160;28;20091;-87
2021/07/07 05:25:38;;;;;;;6.78;3.70;;;15.80;99.90;;;;;;6235701;28;20028;-85
2021/07/07 05:28:39;;;;;;;3.65;3.30;;;15.50;99.90;;;;;;6259220;28;20031;-83
2021/07/07 05:31:40;;;;;;;6.72;3.88;;;15.50;99.90;;;;;;6240819;28;20076;-83
2021/07/07 05:34:41;;;;;;;4.07;3.67;;;15.50;99.90;;;;;;6285692;28;20036;-83
2021/07/07 05:37:41;;;;;;;7.00;3.25;;;15.30;99.90;;;;;;6255917;28;20028;-79
2021/07/07 05:40:42;;;;;;;6.65;4.25;;;15.30;99.90;;;;;;6285981;28;20049;-81
2021/07/07 05:43:43;;;;;;;4.38;3.22;;;15.40;99.90;;;;;;6255633;28;20044;-83
2021/07/07 05:46:43;;;;;;;3.60;3.30;;;15.30;99.90;;;;;;6257361;28;20411;-85
2021/07/07 05:49:44;;;;;;;3.88;3.47;;;15.40;99.90;;;;;;6251798;28;20041;-84
2021/07/07 05:52:45;;;;;;;5.50;3.28;;;15.50;99.90;;;;;;6256944;28;20025;-82
2021/07/07 05:55:45;;;;;;;4.93;3.42;;;15.50;99.90;;;;;;6236463;28;20025;-84
2021/07/07 05:58:46;;;;;;;4.45;3.00;;;15.40;99.90;;;;;;6252761;28;20570;-83
2021/07/07 06:01:47;;;;;;;3.33;3.03;;;15.50;99.90;;;;;;6257359;28;20020;-84
2021/07/07 06:04:47;;;;;;;3.78;3.00;;;15.50;99.90;;;;;;6253390;28;20094;-84
2021/07/07 06:07:49;;;;;;;5.15;3.20;;;15.60;99.90;;;;;;6253171;28;20031;-84
2021/07/07 06:10:49;;;;;;;3.63;3.30;;;15.70;99.90;;;;;;6251887;28;20113;-83
2021/07/07 06:13:50;;;;;;;4.00;2.70;;;15.80;99.90;;;;;;6255010;28;20032;-83
2021/07/07 06:16:51;;;;;;;7.18;3.13;;;15.70;99.90;;;;;;6259099;28;20028;-83
2021/07/07 06:19:52;;;;;;;5.50;2.90;;;15.70;99.90;;;;;;6257594;28;20032;-84
2021/07/07 06:22:52;;;;;;;2.92;2.67;;;15.70;99.90;;;;;;6263203;28;20032;-84
2021/07/07 06:25:53;;;;;;;3.10;2.80;;;15.80;99.90;;;;;;6250541;28;20033;-82
2021/07/07 06:28:54;;;;;;;3.45;2.50;;;15.70;99.90;;;;;;6233977;28;20075;-82
2021/07/07 06:31:55;;;;;;;2.30;2.10;;;15.70;99.90;;;;;;6283137;28;20075;-82
2021/07/07 06:35:00;;;;;;;2.78;2.35;;;15.90;99.90;;;;;;6256870;28;20021;-84
2021/07/07 06:38:01;;;;;;;4.32;2.70;;;15.90;99.90;;;;;;6272687;28;20040;-82
2021/07/07 06:41:01;;;;;;;4.15;2.50;;;16.10;99.90;;;;;;6273484;28;20040;-81
2021/07/07 06:44:02;;;;;;;4.50;2.50;;;16.20;99.90;;;;;;6290285;28;20120;-81
2021/07/07 06:47:04;;;;;;;3.85;2.47;;;16.20;99.90;;;;;;6272368;28;20035;-81
2021/07/07 06:50:08;;;;;;;3.42;2.45;;;16.30;99.90;;;;;;6274294;28;20025;-80
2021/07/07 06:53:09;;;;;;;5.22;2.78;;;16.30;99.90;;;;;;6256598;28;20398;-80
2021/07/07 06:56:10;;;;;;;5.07;3.00;;;16.40;99.90;;;;;;6273664;28;20070;-82
2021/07/07 06:59:10;;;;;;;4.35;2.78;;;16.50;99.90;;;;;;6284600;28;20032;-81
2021/07/07 07:02:11;;;;;;;6.18;2.88;;;16.40;99.90;;;;;;6243797;28;20032;-82
2021/07/07 07:05:13;;;;;;;5.38;2.80;;;16.30;99.90;;;;;;6250192;28;20092;-80
2021/07/07 07:08:16;;;;;;;4.70;2.88;;;16.30;99.90;;;;;;6247016;28;20036;-81
2021/07/07 07:11:19;;;;;;;5.00;3.13;;;16.50;99.90;;;;;;6263401;28;20090;-80
2021/07/07 07:14:19;;;;;;;4.13;2.78;;;16.70;99.90;;;;;;6250568;28;20094;-81
2021/07/07 07:17:21;;;;;;;3.70;2.65;;;17.90;99.90;;;;;;6267950;28;20032;-81
2021/07/07 07:20:25;;;;;;;4.13;2.50;;;16.50;99.90;;;;;;6265500;28;20017;-80
2021/07/07 07:23:26;;;;;;;4.63;2.58;;;16.50;99.90;;;;;;6286625;28;20112;-82
2021/07/07 07:26:28;;;;;;;4.93;2.67;;;16.50;99.90;;;;;;6250317;28;20476;-79
2021/07/07 07:29:28;;;;;;;2.90;2.58;;;16.50;99.90;;;;;;6256691;28;20437;-81
2021/07/07 07:32:29;;;;;;;3.67;2.83;;;16.70;99.90;;;;;;6254881;28;20101;-80
2021/07/07 07:35:30;;;;;;;4.60;3.00;;;16.40;99.90;;;;;;6291544;28;20493;-82
2021/07/07 07:38:33;;;;;;;3.63;2.58;;;;;;;;;;6290750;28;20051;-80
2021/07/07 07:41:37;;;;;;;4.00;3.20;;;;;;;;;;6249707;28;20652;-79
2021/07/07 07:44:38;;;;;;;5.43;2.97;;;16.70;99.90;;;;;;6273842;28;20020;-81
2021/07/07 07:47:42;;;;;;;3.53;2.72;;;17.00;99.90;;;;;;6273325;28;20381;-81
2021/07/07 07:50:43;;;;;;;5.25;3.25;;;17.00;99.90;;;;;;6249163;28;20044;-80
2021/07/07 07:53:46;;;;;;;3.78;2.90;;;;;;;;;;6273413;28;20029;-80
2021/07/07 07:56:47;;;;;;;3.78;3.10;;;;;;;;;;6280240;28;20027;-79
2021/07/07 07:59:48;;;;;;;4.18;3.05;;;;;;;;;;6290803;28;20033;-80
2021/07/07 08:02:49;;;;;;;3.33;3.00;;;17.30;99.90;;;;;;6295428;28;20060;-84
2021/07/07 08:05:49;;;;;;;4.75;3.20;;;18.00;99.90;;;;;;6253452;28;20032;-81
2021/07/07 08:08:50;;;;;;;6.35;3.47;;;18.20;99.90;;;;;;6261140;28;20039;-83
2021/07/07 08:11:51;;;;;;;4.40;3.25;;;18.30;99.90;;;;;;6276948;28;20070;-82
2021/07/07 08:14:52;;;;;;;4.07;2.90;;;18.50;99.90;;;;;;6262831;28;20029;-85
2021/07/07 08:17:54;;;;;;;4.28;2.67;;;19.00;99.90;;;;;;6253152;28;20037;-83
2021/07/07 08:20:54;;;;;;;3.40;2.97;;;19.00;99.90;;;;;;6260761;28;20028;-82
2021/07/07 08:23:55;;;;;;;3.10;2.80;;;19.50;99.90;;;;;;6294784;28;20106;-83
2021/07/07 08:26:57;;;;;;;5.38;2.47;;;20.20;99.90;;;;;;6260291;28;20028;-82
2021/07/07 08:29:58;;;;;;;3.90;2.80;;;20.10;99.90;;;;;;6260049;28;20043;-83
2021/07/07 08:32:59;;;;;;;2.85;2.55;;;20.50;99.90;;;;;;6254213;28;20033;-83
2021/07/07 08:35:59;;;;;;;3.28;2.70;;;20.40;99.90;;;;;;6243519;28;20056;-83
2021/07/07 08:39:00;;;;;;;3.88;2.80;;;20.40;99.90;;;;;;6264522;28;20056;-83
2021/07/07 08:42:00;;;;;;;3.55;2.40;;;20.40;99.90;;;;;;6277167;28;20025;-82
2021/07/07 08:45:07;;;;;;;3.60;2.63;;;20.60;99.90;;;;;;6276919;28;20471;-82
2021/07/07 08:48:08;;;;;;;2.42;2.20;;;20.60;99.90;;;;;;6277871;28;20107;-86
2021/07/07 08:51:08;;;;;;;3.55;2.67;;;20.70;99.90;;;;;;6259940;28;20055;-85
2021/07/07 08:54:09;;;;;;;3.85;2.50;;;20.80;99.90;;;;;;6276865;28;20028;-82
2021/07/07 08:57:10;;;;;;;2.88;2.60;;;20.60;99.90;;;;;;6276597;28;20110;-83
2021/07/07 09:00:20;;;;;;;2.97;2.50;;;20.40;99.90;;;;;;6276654;28;20032;-82
2021/07/07 09:03:21;;;;;;;3.88;2.55;;;20.30;99.90;;;;;;6276526;28;20032;-82
2021/07/07 09:06:21;;;;;;;4.00;2.70;;;20.40;99.90;;;;;;6259651;28;20029;-82
2021/07/07 09:09:40;;;;;;;5.45;2.45;;;21.40;99.90;;;;;;6293263;28;20024;-84
2021/07/07 09:12:40;;;;;;;4.60;2.67;;;22.60;99.90;;;;;;6294513;28;20068;-81
2021/07/07 09:15:41;;;;;;;3.35;2.38;;;23.00;99.90;;;;;;6276259;28;20410;-82
2021/07/07 09:18:42;;;;;;;2.70;2.50;;;23.60;99.80;;;;;;6275903;28;20028;-82
2021/07/07 09:21:47;;;;;;;2.60;2.38;;;23.80;97.70;;;;;;6275701;28;20057;-85
2021/07/07 09:24:49;;;;;;;2.95;2.47;;;23.60;97.80;;;;;;6259080;28;20473;-83
2021/07/07 09:27:49;;;;;;;3.72;2.50;;;23.10;97.80;;;;;;6276099;28;20025;-81
2021/07/07 09:30:51;;;;;;;3.90;2.50;;;22.80;98.60;;;;;;6259051;28;20541;-82
2021/07/07 09:33:51;;;;;;;6.93;2.30;;;22.50;98.90;;;;;;6288187;28;20027;-83
2021/07/07 09:36:54;;;;;;;2.63;2.40;;;22.50;98.60;;;;;;6287428;28;20363;-82
2021/07/07 09:39:55;;;;;;;6.32;4.18;;;22.40;99.10;;;;;;6289968;28;20526;-83
2021/07/07 09:42:55;;;;;;;2.60;2.40;;;22.30;99.70;;;;;;6274832;28;20028;-82
2021/07/07 09:45:57;;;;;;;3.05;2.50;;;22.20;99.90;;;;;;6292406;28;20551;-82
2021/07/07 09:48:57;;;;;;;2.87;2.50;;;22.10;99.90;;;;;;6274586;28;20082;-84
2021/07/07 09:51:58;;;;;;;2.67;2.40;;;22.20;99.90;;;;;;6274386;28;20072;-82
2021/07/07 09:55:03;;;;;;;2.57;2.37;;;22.30;99.90;;;;;;6275098;28;20457;-85
2021/07/07 09:58:04;;;;;;;3.63;2.63;;;22.40;99.30;;;;;;6275739;28;20328;-84
2021/07/07 10:01:04;;;;;;;6.80;3.40;;;22.40;99.90;;;;;;6275585;28;20383;-84
2021/07/07 10:04:10;;;;;;;4.75;2.90;;;;;;;;;;6275151;28;20135;-82
2021/07/07 10:07:11;;;;;;;4.45;2.83;;;22.60;99.90;;;;;;6292228;28;20127;-82
2021/07/07 10:10:16;;;;;;;3.47;2.50;;;22.90;99.90;;;;;;6275300;28;20783;-84
2021/07/07 10:13:17;;;;;;;2.92;2.40;;;;;;;;;;6275357;28;20415;-83
2021/07/07 10:16:17;;;;;;;2.50;2.17;;;22.80;99.90;;;;;;6292559;28;20024;-82
2021/07/07 10:19:19;;;;;;;3.28;2.50;;;22.90;99.90;;;;;;6274822;28;20048;-81
2021/07/07 10:22:19;;;;;;;3.40;2.80;;;22.80;98.60;;;;;;6258492;28;20032;-81
2021/07/07 10:25:23;;;;;;;2.75;2.55;;;22.50;99.90;;;;;;6291704;28;20083;-82
2021/07/07 10:28:23;;;;;;;3.95;2.40;;;22.70;99.80;;;;;;6258793;28;20387;-83
2021/07/07 10:31:48;;;;;;;4.50;2.22;;;22.80;99.90;;;;;;6258078;28;20040;-81
2021/07/07 10:34:49;;;;;;;2.55;2.30;;;22.90;99.80;;;;;;6292179;28;20486;-81
2021/07/07 10:37:50;;;;;;;3.33;2.45;;;;;;;;;;6291538;28;20040;-81
2021/07/07 10:40:53;;;;;;;2.97;2.42;;;23.90;99.90;;;;;;6258261;28;20049;-81
2021/07/07 10:43:54;;;;;;;3.53;2.50;;;;;;;;;;6266962;28;20071;-81
2021/07/07 10:46:59;;;;;;;2.80;2.28;;;24.60;99.20;;;;;;6274490;28;20020;-82
2021/07/07 10:50:01;;;;;;;5.05;2.50;;;24.60;96.90;;;;;;6291030;28;20040;-82
2021/07/07 10:53:01;;;;;;;4.10;2.60;;;24.40;97.10;;;;;;6290914;28;20056;-82
2021/07/07 10:56:06;;;;;;;5.82;2.53;;;24.10;97.80;;;;;;6274144;28;20033;-83
2021/07/07 10:59:33;;;;;;;5.38;3.28;;;24.20;97.50;;;;;;6259005;28;20463;-82
2021/07/07 11:02:34;;;;;;;4.32;2.78;;;24.50;97.00;;;;;;6292329;28;20028;-84
2021/07/07 11:05:40;;;;;;;5.50;2.55;;;24.00;98.50;;;;;;6253753;28;20044;-83
2021/07/07 11:08:41;;;;;;;4.90;2.90;;;24.00;97.90;;;;;;6273879;28;20037;-83
2021/07/07 11:11:44;;;;;;;3.85;2.50;;;23.80;97.60;;;;;;6290825;28;20458;-83
2021/07/07 11:15:07;;;;;;;4.70;2.72;;;23.70;97.70;;;;;;6250587;28;20036;-84
2021/07/07 11:18:17;;;;;;;6.72;2.58;;;23.70;97.90;;;;;;6273321;28;20116;-84
2021/07/07 11:21:18;;;;;;;5.00;2.40;;;23.80;98.30;;;;;;6251838;28;20052;-83
2021/07/07 11:24:18;;;;;;;3.35;2.25;;;24.20;98.40;;;;;;6250772;28;20033;-83
2021/07/07 11:27:19;;;;;;;2.80;2.50;;;24.80;97.80;;;;;;6252422;28;20029;-79
2021/07/07 11:30:20;;;;;;;2.93;2.47;;;25.40;96.50;;;;;;6252406;28;20467;-79
2021/07/07 11:33:20;;;;;;;2.43;2.23;;;26.00;96.90;;;;;;6276304;28;20024;-79
2021/07/07 11:36:23;;;;;;;5.33;2.40;;;25.70;95.10;;;;;;6294831;28;20454;-82
2021/07/07 11:39:25;;;;;;;5.97;2.50;;;25.70;95.00;;;;;;6260772;28;20091;-81
2021/07/07 11:42:25;;;;;;;10.10;2.78;;;26.00;95.80;;;;;;6270768;28;20522;-80
2021/07/07 11:45:31;;;;;;;4.53;3.10;;;26.20;94.50;;;;;;6286257;28;20028;-79
2021/07/07 11:48:35;;;;;;;3.75;2.70;;;26.50;93.90;;;;;;6294459;28;20078;-80
2021/07/07 11:51:38;;;;;;;3.45;2.38;;;26.90;93.50;;;;;;6270714;28;20114;-79
2021/07/07 11:54:46;;;;;;;2.95;2.28;;;27.00;90.00;;;;;;6277990;28;20031;-79
2021/07/07 11:57:46;;;;;;;3.17;2.40;;;26.70;90.70;;;;;;6277606;28;20028;-82
2021/07/07 12:00:47;;;;;;;4.77;2.50;;;26.60;96.40;;;;;;6261453;28;20074;-79
2021/07/07 12:04:00;;;;;;;3.63;2.63;;;26.40;96.60;;;;;;6277879;28;20033;-79
2021/07/07 12:07:03;;;;;;;3.05;2.50;;;26.20;96.10;;;;;;6277158;28;20028;-83
2021/07/07 12:10:27;;;;;;;4.80;2.45;;;26.90;98.10;;;;;;6277458;28;20043;-79
2021/07/07 12:13:28;;;;;;;5.90;2.60;;;26.10;99.90;;;;;;6277500;28;20032;-79
2021/07/07 12:16:33;;;;;;;5.93;2.85;;;26.10;96.50;;;;;;6277601;28;20046;-79
2021/07/07 12:19:34;;;;;;;3.90;2.53;;;25.20;99.90;;;;;;6258760;28;20106;-82
2021/07/07 12:22:34;;;;;;;5.63;2.60;;;25.20;98.00;;;;;;6282667;28;20024;-79
2021/07/07 12:25:35;;;;;;;4.33;2.70;;;25.00;94.70;;;;;;6262865;28;20029;-79
2021/07/07 12:28:36;;;;;;;8.17;2.80;;;25.10;94.80;;;;;;6256838;28;20103;-78
2021/07/07 12:31:38;;;;;;;3.70;2.40;;;25.40;94.20;;;;;;6276636;28;20043;-79
2021/07/07 12:34:41;;;;;;;4.07;2.63;;;25.30;93.40;;;;;;6293672;28;20032;-78
2021/07/07 12:37:41;;;;;;;2.95;2.35;;;25.10;93.60;;;;;;6267764;28;20116;-78
2021/07/07 12:40:46;;;;;;;3.00;2.37;;;24.90;93.30;;;;;;6272476;28;20448;-78
2021/07/07 12:44:07;;;;;;;5.90;2.75;;;23.60;93.90;;;;;;6276197;28;20048;-82
2021/07/07 12:47:15;;;;;;;3.47;2.60;;;25.20;92.00;;;;;;6279341;28;20119;-81
2021/07/07 12:50:20;;;;;;;2.60;2.40;;;26.60;94.80;;;;;;6294680;28;20043;-83
2021/07/07 12:53:36;;;;;;;4.00;2.35;;;25.20;93.40;;;;;;6285048;28;20024;-83
2021/07/07 12:56:37;;;;;;;4.03;2.65;;;25.10;93.70;;;;;;6250402;28;20394;-81
2021/07/07 12:59:51;;;;;;;4.57;2.67;;;24.90;94.30;;;;;;6239370;28;20025;-81
2021/07/07 13:02:56;;;;;;;3.72;2.60;;;24.60;94.20;;;;;;6259286;28;20037;-79
2021/07/07 13:05:58;;;;;;;3.33;2.50;;;24.60;93.70;;;;;;6275728;28;20040;-81
2021/07/07 13:09:00;;;;;;;4.45;2.58;;;24.60;94.40;;;;;;6292363;28;20075;-80
2021/07/07 13:12:04;;;;;;;2.60;2.40;;;24.50;94.80;;;;;;6258782;28;20505;-80
2021/07/07 13:15:06;;;;;;;2.85;2.30;;;24.30;95.10;;;;;;6265860;28;20037;-78
2021/07/07 13:18:06;;;;;;;4.78;2.60;;;24.10;94.40;;;;;;6252404;28;20035;-78
2021/07/07 13:21:07;;;;;;;5.67;2.70;;;23.90;94.70;;;;;;6252337;28;20045;-80
2021/07/07 13:24:22;;;;;;;5.00;2.50;;;23.90;95.00;;;;;;6276031;28;20028;-78
2021/07/07 13:27:23;;;;;;;4.47;2.58;;;23.90;94.70;;;;;;6292699;28;20037;-78
2021/07/07 13:30:30;;;;;;;3.83;2.72;;;24.00;94.60;;;;;;6259191;28;20052;-77
2021/07/07 13:33:31;;;;;;;5.22;2.97;;;24.00;94.20;;;;;;6281007;28;20029;-81
2021/07/07 13:36:36;;;;;;;5.85;2.60;;;24.20;94.00;;;;;;6268517;28;20119;-78
2021/07/07 13:39:36;;;;;;;4.53;2.70;;;24.30;94.80;;;;;;6273675;28;20084;-78
2021/07/07 13:42:38;;;;;;;3.10;2.57;;;22.60;94.90;;;;;;6266351;28;20096;-78
2021/07/07 13:45:39;;;;;;;3.50;2.45;;;24.50;94.10;;;;;;6283057;28;20038;-82
2021/07/07 13:48:39;;;;;;;4.97;2.53;;;24.40;93.60;;;;;;6300126;28;20036;-78
2021/07/07 13:51:40;;;;;;;4.03;2.53;;;24.30;92.90;;;;;;6300120;28;20044;-78
2021/07/07 13:54:41;;;;;;;4.40;2.70;;;24.20;92.50;;;;;;6317281;28;20166;-78
2021/07/07 13:57:42;;;;;;;2.70;2.25;;;25.70;92.60;;;;;;6259240;28;20127;-79
2021/07/07 14:00:42;;;;;;;2.90;2.27;;;24.00;92.60;;;;;;6259278;28;20489;-78
2021/07/07 14:03:43;;;;;;;6.27;2.27;;;23.80;93.70;;;;;;6302918;28;20027;-81
2021/07/07 14:06:44;;;;;;;3.13;2.40;;;23.80;93.20;;;;;;6317844;28;20028;-82
2021/07/07 14:09:44;;;;;;;3.05;2.75;;;24.00;93.70;;;;;;6275632;28;20147;-80
2021/07/07 14:12:45;;;;;;;3.67;2.57;;;24.10;93.30;;;;;;6291588;28;20077;-81
2021/07/07 14:15:45;;;;;;;2.80;2.50;;;24.20;97.40;;;;;;6294288;28;20032;-77
2021/07/07 14:18:46;;;;;;;2.97;2.13;;;24.60;96.70;;;;;;6311910;28;20043;-77
2021/07/07 14:21:46;;;;;;;2.73;2.00;;;24.50;95.80;;;;;;6299841;28;20035;-77
2021/07/07 14:24:47;;;;;;;2.53;2.17;;;24.60;95.70;;;;;;6274995;28;20116;-79
2021/07/07 14:27:48;;;;;;;3.50;2.70;;;24.40;96.10;;;;;;6293743;28;20040;-77
2021/07/07 14:30:48;;;;;;;3.10;2.80;;;24.80;95.80;;;;;;6293578;28;20032;-78
2021/07/07 14:33:49;;;;;;;6.10;2.57;;;25.20;95.30;;;;;;6292949;28;20043;-77
2021/07/07 14:36:49;;;;;;;3.47;2.43;;;25.20;92.80;;;;;;6291484;28;20454;-77
2021/07/07 14:39:50;;;;;;;2.30;2.10;;;25.00;90.00;;;;;;6302707;28;20135;-78
2021/07/07 14:42:51;;;;;;;3.90;1.90;;;24.80;91.20;;;;;;6273813;28;20036;-78
2021/07/07 14:45:51;;;;;;;2.27;1.90;;;24.70;91.20;;;;;;6270148;28;20025;-80
2021/07/07 14:48:52;;;;;;;4.10;2.10;;;24.60;92.10;;;;;;6274144;28;20032;-80
2021/07/07 14:51:53;;;;;;;1.90;1.80;;;24.50;91.60;;;;;;6250091;28;20032;-81
2021/07/07 14:54:53;;;;;;;4.47;2.00;;;24.30;90.90;;;;;;6267005;28;20115;-79
2021/07/07 14:57:54;;;;;;;2.27;1.80;;;24.30;92.20;;;;;;6266532;28;20068;-79
2021/07/07 15:12:03;;;;;;;2.03;1.83;;;24.70;89.20;;;;;;7103450;22;20087;-79
2021/07/07 15:15:05;;;;;;;1.70;1.60;;;24.50;89.40;;;;;;6286139;28;20029;-79
2021/07/07 15:18:06;;;;;;;1.40;1.35;;;24.60;87.10;;;;;;6262328;28;20031;-78
2021/07/07 15:21:08;;;;;;;1.60;1.50;;;24.40;89.00;;;;;;6262184;28;20108;-78
2021/07/07 15:24:08;;;;;;;1.98;1.75;;;24.60;87.90;;;;;;6279473;28;20028;-84
2021/07/07 15:27:09;;;;;;;1.40;1.30;;;24.80;88.30;;;;;;6262615;28;20064;-81
2021/07/07 15:30:10;;;;;;;1.37;1.20;;;24.60;86.80;;;;;;6279035;28;20539;-82
2021/07/07 15:33:11;;;;;;;1.45;1.35;;;24.50;85.90;;;;;;6279167;28;20037;-82
2021/07/07 15:36:12;;;;;;;1.40;1.30;;;24.30;85.50;;;;;;6262362;28;20182;-81
2021/07/07 15:39:15;;;;;;;1.57;1.47;;;24.20;85.50;;;;;;6278456;28;20032;-82
2021/07/07 15:42:17;;;;;;;1.50;1.40;;;23.90;85.70;;;;;;6262064;28;20474;-82
2021/07/07 15:45:18;;;;;;;;;;;23.70;87.70;;;;;;6262492;28;20025;-83
2021/07/07 15:48:19;;;;;;;1.63;1.52;;;;;;;;;;6278355;28;19908;-84
2021/07/07 15:51:20;;;;;;;1.70;1.60;;;;;;;;;;6278851;28;20028;-82
2021/07/07 15:54:21;;;;;;;2.28;1.67;;;23.40;93.10;;;;;;6278523;28;20543;-82
2021/07/07 15:57:22;;;;;;;1.50;1.40;;;23.40;94.60;;;;;;6261404;28;20128;-82
2021/07/07 16:00:23;;;;;;;1.25;1.25;;;;;;;;;;6278474;28;20024;-85
2021/07/07 16:03:23;;;;;;;1.80;1.70;;;23.70;93.10;;;;;;6278536;28;20383;-81
2021/07/07 16:06:24;;;;;;;1.33;1.30;;;;;;;;;;6278622;28;20029;-82
2021/07/07 16:09:25;;;;;;;2.23;1.73;;;23.80;92.50;;;;;;6278319;28;20024;-84
2021/07/07 16:12:26;;;;;;;1.70;1.60;;;23.90;94.40;;;;;;6261095;28;20506;-82